Portada
METAR-TAF:

METAR-TAF

Aeroports :

Yüksekova, Turquia

latitud: 37-33-06N, longitud: 44-14-01E, altitud: 1950 m

Observació

L'informe es va fer fa 43 minuts, a les 17:50 UTC
Vent 9 kt del Est/Nord-Est
Temperatura 24°C
Humitat 34%
Pressió 1015 hPa
Visibilitat 10 km o més
Escasses núvols a una alçada de 4000 ft

METAR: LTCW 181750Z 07009KT 9999 FEW040 24/07 Q1015

Hora: 21:33 (18:33 UTC)

Pronòstic

L'informe es va fer fa 1 hora i 53 minuts, a les 16:40 UTC
Pronòstic vàlid del 18 a les 18 UTC al 19 a les 03 UTC
Vent 12 kt del Est/Nord-Est amb ràfegues de 22 kt
Visibilitat 10 km o més
Escasses núvols a una alçada de 4000 ft

TAF: LTCW 181640Z 1818/1903 07012G22KT 9999 FEW040

Observacions i pronòstics meteorològics de més de 4000 aeroports (METAR i TAF).

Les estacions disponibles són els punts grocs i vermells al mapa.

Posi el ratolí al punt desitjat per veure el nom de l'estació.

Feu clic per veure les observacions i els pronòstics meteorològics.

Per canviar el mapa: feu clic els botons verds amb una creu de color negre per apropar; al botó verd amb un guió per allunyar la imatge; o en les fletxes verdes per a mapes adjacents.


METAR-TAF: